sensor_id;sensor_type;location;lat;lon;timestamp;P1;durP1;ratioP1;P2;durP2;ratioP2
33714;SDS011;20043;50.998;4.754;2023-02-28T00:00:50;10.00;;;6.50;;
33714;SDS011;20043;50.998;4.754;2023-02-28T00:03:16;9.88;;;6.55;;
33714;SDS011;20043;50.998;4.754;2023-02-28T00:05:42;11.00;;;6.13;;
33714;SDS011;20043;50.998;4.754;2023-02-28T00:08:08;14.40;;;6.50;;
33714;SDS011;20043;50.998;4.754;2023-02-28T00:10:34;17.67;;;6.82;;
33714;SDS011;20043;50.998;4.754;2023-02-28T00:13:01;12.95;;;5.97;;
33714;SDS011;20043;50.998;4.754;2023-02-28T00:15:28;13.82;;;6.70;;
33714;SDS011;20043;50.998;4.754;2023-02-28T00:17:53;13.57;;;6.45;;
33714;SDS011;20043;50.998;4.754;2023-02-28T00:20:19;12.95;;;6.15;;
33714;SDS011;20043;50.998;4.754;2023-02-28T00:22:46;14.68;;;6.10;;
33714;SDS011;20043;50.998;4.754;2023-02-28T00:25:14;15.80;;;6.90;;
33714;SDS011;20043;50.998;4.754;2023-02-28T00:27:42;14.13;;;6.57;;
33714;SDS011;20043;50.998;4.754;2023-02-28T00:30:09;12.70;;;5.90;;
33714;SDS011;20043;50.998;4.754;2023-02-28T00:32:36;16.50;;;6.53;;
33714;SDS011;20043;50.998;4.754;2023-02-28T00:35:02;12.65;;;7.20;;
33714;SDS011;20043;50.998;4.754;2023-02-28T00:37:29;12.35;;;6.20;;
33714;SDS011;20043;50.998;4.754;2023-02-28T00:39:55;11.23;;;6.13;;
33714;SDS011;20043;50.998;4.754;2023-02-28T00:42:21;11.23;;;6.32;;
33714;SDS011;20043;50.998;4.754;2023-02-28T00:44:46;19.35;;;7.30;;
33714;SDS011;20043;50.998;4.754;2023-02-28T00:47:12;15.65;;;6.72;;
33714;SDS011;20043;50.998;4.754;2023-02-28T00:49:38;10.85;;;6.93;;
33714;SDS011;20043;50.998;4.754;2023-02-28T00:52:03;13.35;;;6.90;;
33714;SDS011;20043;50.998;4.754;2023-02-28T00:54:29;13.05;;;5.90;;
33714;SDS011;20043;50.998;4.754;2023-02-28T00:56:54;12.75;;;6.53;;
33714;SDS011;20043;50.998;4.754;2023-02-28T00:59:20;14.85;;;6.07;;
33714;SDS011;20043;50.998;4.754;2023-02-28T01:01:46;15.38;;;6.57;;
33714;SDS011;20043;50.998;4.754;2023-02-28T01:04:12;11.45;;;6.25;;
33714;SDS011;20043;50.998;4.754;2023-02-28T01:06:39;12.30;;;5.82;;
33714;SDS011;20043;50.998;4.754;2023-02-28T01:09:05;14.73;;;6.18;;
33714;SDS011;20043;50.998;4.754;2023-02-28T01:11:32;12.68;;;6.05;;
33714;SDS011;20043;50.998;4.754;2023-02-28T01:13:58;14.52;;;6.95;;
33714;SDS011;20043;50.998;4.754;2023-02-28T01:16:25;17.10;;;7.18;;
33714;SDS011;20043;50.998;4.754;2023-02-28T01:18:50;12.05;;;6.85;;
33714;SDS011;20043;50.998;4.754;2023-02-28T01:21:17;15.13;;;7.03;;
33714;SDS011;20043;50.998;4.754;2023-02-28T01:23:43;12.85;;;6.82;;
33714;SDS011;20043;50.998;4.754;2023-02-28T01:26:11;13.48;;;6.38;;
33714;SDS011;20043;50.998;4.754;2023-02-28T01:28:39;16.42;;;7.15;;
33714;SDS011;20043;50.998;4.754;2023-02-28T01:31:05;14.55;;;7.22;;
33714;SDS011;20043;50.998;4.754;2023-02-28T01:33:31;15.60;;;7.80;;
33714;SDS011;20043;50.998;4.754;2023-02-28T01:38:30;14.48;;;7.50;;
33714;SDS011;20043;50.998;4.754;2023-02-28T01:40:56;14.40;;;7.90;;
33714;SDS011;20043;50.998;4.754;2023-02-28T01:43:24;17.70;;;7.70;;
33714;SDS011;20043;50.998;4.754;2023-02-28T01:45:50;16.00;;;7.20;;
33714;SDS011;20043;50.998;4.754;2023-02-28T01:48:21;13.98;;;7.35;;
33714;SDS011;20043;50.998;4.754;2023-02-28T01:50:54;15.30;;;7.60;;
33714;SDS011;20043;50.998;4.754;2023-02-28T01:53:26;13.85;;;7.90;;
33714;SDS011;20043;50.998;4.754;2023-02-28T01:56:04;12.48;;;7.53;;
33714;SDS011;20043;50.998;4.754;2023-02-28T01:58:32;15.73;;;7.85;;
33714;SDS011;20043;50.998;4.754;2023-02-28T02:00:58;17.90;;;8.80;;
33714;SDS011;20043;50.998;4.754;2023-02-28T02:03:23;14.23;;;7.60;;
33714;SDS011;20043;50.998;4.754;2023-02-28T02:05:49;16.88;;;8.38;;
33714;SDS011;20043;50.998;4.754;2023-02-28T02:08:19;14.15;;;7.18;;
33714;SDS011;20043;50.998;4.754;2023-02-28T02:10:51;15.63;;;8.00;;
33714;SDS011;20043;50.998;4.754;2023-02-28T02:41:29;12.27;;;7.57;;
33714;SDS011;20043;50.998;4.754;2023-02-28T02:44:11;14.38;;;8.63;;
33714;SDS011;20043;50.998;4.754;2023-02-28T02:46:44;14.10;;;10.55;;
33714;SDS011;20043;50.998;4.754;2023-02-28T02:49:15;15.23;;;8.20;;
33714;SDS011;20043;50.998;4.754;2023-02-28T02:51:55;15.77;;;8.65;;
33714;SDS011;20043;50.998;4.754;2023-02-28T02:54:23;17.80;;;9.80;;
33714;SDS011;20043;50.998;4.754;2023-02-28T02:56:53;17.02;;;9.60;;
33714;SDS011;20043;50.998;4.754;2023-02-28T02:59:26;16.33;;;9.80;;
33714;SDS011;20043;50.998;4.754;2023-02-28T03:01:55;18.15;;;9.35;;
33714;SDS011;20043;50.998;4.754;2023-02-28T03:04:28;19.88;;;10.43;;
33714;SDS011;20043;50.998;4.754;2023-02-28T03:06:59;16.20;;;8.63;;
33714;SDS011;20043;50.998;4.754;2023-02-28T03:09:25;20.55;;;8.85;;
33714;SDS011;20043;50.998;4.754;2023-02-28T03:11:52;17.08;;;8.27;;
33714;SDS011;20043;50.998;4.754;2023-02-28T03:20:07;14.65;;;9.00;;
33714;SDS011;20043;50.998;4.754;2023-02-28T03:22:51;19.02;;;10.60;;
33714;SDS011;20043;50.998;4.754;2023-02-28T03:25:28;16.30;;;10.05;;
33714;SDS011;20043;50.998;4.754;2023-02-28T03:28:24;13.30;;;9.48;;
33714;SDS011;20043;50.998;4.754;2023-02-28T03:31:03;16.30;;;9.82;;
33714;SDS011;20043;50.998;4.754;2023-02-28T03:33:36;20.38;;;10.10;;
33714;SDS011;20043;50.998;4.754;2023-02-28T03:36:17;20.50;;;9.95;;
33714;SDS011;20043;50.998;4.754;2023-02-28T03:38:46;15.52;;;10.43;;
33714;SDS011;20043;50.998;4.754;2023-02-28T03:41:22;17.52;;;10.32;;
33714;SDS011;20043;50.998;4.754;2023-02-28T03:43:56;17.60;;;9.77;;
33714;SDS011;20043;50.998;4.754;2023-02-28T03:46:27;15.23;;;9.27;;
33714;SDS011;20043;50.998;4.754;2023-02-28T03:49:00;15.50;;;9.93;;
33714;SDS011;20043;50.998;4.754;2023-02-28T03:51:36;15.90;;;10.15;;
33714;SDS011;20043;50.998;4.754;2023-02-28T03:54:07;14.88;;;9.95;;
33714;SDS011;20043;50.998;4.754;2023-02-28T03:56:39;18.70;;;10.25;;
33714;SDS011;20043;50.998;4.754;2023-02-28T03:59:15;13.82;;;9.45;;
33714;SDS011;20043;50.998;4.754;2023-02-28T04:01:53;18.08;;;10.23;;
33714;SDS011;20043;50.998;4.754;2023-02-28T04:04:20;18.95;;;9.57;;
33714;SDS011;20043;50.998;4.754;2023-02-28T04:06:47;19.98;;;9.68;;
33714;SDS011;20043;50.998;4.754;2023-02-28T04:09:16;19.48;;;9.85;;
33714;SDS011;20043;50.998;4.754;2023-02-28T04:11:42;18.45;;;9.02;;
33714;SDS011;20043;50.998;4.754;2023-02-28T04:14:13;13.13;;;9.18;;
33714;SDS011;20043;50.998;4.754;2023-02-28T04:16:39;13.45;;;9.65;;
33714;SDS011;20043;50.998;4.754;2023-02-28T04:19:06;15.68;;;9.60;;
33714;SDS011;20043;50.998;4.754;2023-02-28T04:21:34;15.98;;;10.10;;
33714;SDS011;20043;50.998;4.754;2023-02-28T04:24:02;19.73;;;11.27;;
33714;SDS011;20043;50.998;4.754;2023-02-28T04:26:32;20.13;;;10.93;;
33714;SDS011;20043;50.998;4.754;2023-02-28T04:28:59;16.05;;;10.40;;
33714;SDS011;20043;50.998;4.754;2023-02-28T04:31:26;20.15;;;9.90;;
33714;SDS011;20043;50.998;4.754;2023-02-28T04:33:52;18.92;;;12.15;;
33714;SDS011;20043;50.998;4.754;2023-02-28T04:36:17;19.05;;;11.20;;
33714;SDS011;20043;50.998;4.754;2023-02-28T04:38:44;16.90;;;11.48;;
33714;SDS011;20043;50.998;4.754;2023-02-28T04:41:10;17.05;;;11.32;;
33714;SDS011;20043;50.998;4.754;2023-02-28T04:43:36;21.52;;;11.43;;
33714;SDS011;20043;50.998;4.754;2023-02-28T04:46:03;19.30;;;10.90;;
33714;SDS011;20043;50.998;4.754;2023-02-28T04:48:31;22.73;;;11.35;;
33714;SDS011;20043;50.998;4.754;2023-02-28T04:51:09;20.63;;;10.73;;
33714;SDS011;20043;50.998;4.754;2023-02-28T04:53:37;19.27;;;11.38;;
33714;SDS011;20043;50.998;4.754;2023-02-28T04:56:04;16.23;;;10.98;;
33714;SDS011;20043;50.998;4.754;2023-02-28T04:58:31;19.08;;;11.88;;
33714;SDS011;20043;50.998;4.754;2023-02-28T05:01:13;18.33;;;11.88;;
33714;SDS011;20043;50.998;4.754;2023-02-28T05:03:51;18.55;;;11.27;;
33714;SDS011;20043;50.998;4.754;2023-02-28T05:06:18;23.13;;;11.27;;
33714;SDS011;20043;50.998;4.754;2023-02-28T05:08:45;21.40;;;11.93;;
33714;SDS011;20043;50.998;4.754;2023-02-28T05:11:30;22.48;;;11.68;;
33714;SDS011;20043;50.998;4.754;2023-02-28T05:14:04;18.95;;;11.50;;
33714;SDS011;20043;50.998;4.754;2023-02-28T05:16:39;21.23;;;12.43;;
33714;SDS011;20043;50.998;4.754;2023-02-28T05:19:04;21.55;;;12.13;;
33714;SDS011;20043;50.998;4.754;2023-02-28T05:21:34;22.67;;;11.65;;
33714;SDS011;20043;50.998;4.754;2023-02-28T05:24:03;18.80;;;11.35;;
33714;SDS011;20043;50.998;4.754;2023-02-28T05:26:30;16.85;;;10.90;;
33714;SDS011;20043;50.998;4.754;2023-02-28T05:28:59;19.75;;;11.23;;
33714;SDS011;20043;50.998;4.754;2023-02-28T05:31:24;20.58;;;11.35;;
33714;SDS011;20043;50.998;4.754;2023-02-28T05:33:50;21.17;;;11.48;;
33714;SDS011;20043;50.998;4.754;2023-02-28T05:36:16;13.98;;;9.90;;
33714;SDS011;20043;50.998;4.754;2023-02-28T05:38:42;23.48;;;11.13;;
33714;SDS011;20043;50.998;4.754;2023-02-28T05:41:08;15.02;;;9.48;;
33714;SDS011;20043;50.998;4.754;2023-02-28T05:43:34;15.95;;;10.52;;
33714;SDS011;20043;50.998;4.754;2023-02-28T05:46:04;14.68;;;10.23;;
33714;SDS011;20043;50.998;4.754;2023-02-28T05:48:35;17.65;;;10.73;;
33714;SDS011;20043;50.998;4.754;2023-02-28T05:51:01;13.70;;;9.85;;
33714;SDS011;20043;50.998;4.754;2023-02-28T05:53:28;22.00;;;10.52;;
33714;SDS011;20043;50.998;4.754;2023-02-28T05:55:54;20.40;;;9.82;;
33714;SDS011;20043;50.998;4.754;2023-02-28T05:58:20;25.10;;;9.80;;
33714;SDS011;20043;50.998;4.754;2023-02-28T06:00:46;14.05;;;9.82;;
33714;SDS011;20043;50.998;4.754;2023-02-28T06:03:12;15.65;;;9.82;;
33714;SDS011;20043;50.998;4.754;2023-02-28T06:05:38;21.15;;;9.57;;
33714;SDS011;20043;50.998;4.754;2023-02-28T06:08:04;16.67;;;9.27;;
33714;SDS011;20043;50.998;4.754;2023-02-28T06:10:32;13.95;;;9.60;;
33714;SDS011;20043;50.998;4.754;2023-02-28T06:12:59;16.58;;;9.35;;
33714;SDS011;20043;50.998;4.754;2023-02-28T06:15:27;15.20;;;9.30;;
33714;SDS011;20043;50.998;4.754;2023-02-28T06:17:54;22.23;;;10.18;;
33714;SDS011;20043;50.998;4.754;2023-02-28T06:20:24;16.83;;;9.18;;
33714;SDS011;20043;50.998;4.754;2023-02-28T06:22:53;18.63;;;9.82;;
33714;SDS011;20043;50.998;4.754;2023-02-28T06:25:20;17.60;;;9.50;;
33714;SDS011;20043;50.998;4.754;2023-02-28T06:27:46;25.55;;;10.05;;
33714;SDS011;20043;50.998;4.754;2023-02-28T06:30:13;22.52;;;10.30;;
33714;SDS011;20043;50.998;4.754;2023-02-28T06:32:40;16.70;;;9.57;;
33714;SDS011;20043;50.998;4.754;2023-02-28T06:35:06;21.25;;;9.75;;
33714;SDS011;20043;50.998;4.754;2023-02-28T06:37:32;15.38;;;9.02;;
33714;SDS011;20043;50.998;4.754;2023-02-28T06:39:58;15.95;;;8.90;;
33714;SDS011;20043;50.998;4.754;2023-02-28T06:42:24;20.52;;;9.48;;
33714;SDS011;20043;50.998;4.754;2023-02-28T06:44:54;17.50;;;9.90;;
33714;SDS011;20043;50.998;4.754;2023-02-28T06:47:22;17.88;;;9.75;;
33714;SDS011;20043;50.998;4.754;2023-02-28T06:49:48;25.73;;;10.02;;
33714;SDS011;20043;50.998;4.754;2023-02-28T06:52:14;16.85;;;9.15;;
33714;SDS011;20043;50.998;4.754;2023-02-28T06:54:40;18.08;;;9.23;;
33714;SDS011;20043;50.998;4.754;2023-02-28T06:57:06;22.05;;;9.88;;
33714;SDS011;20043;50.998;4.754;2023-02-28T06:59:32;18.48;;;9.23;;
33714;SDS011;20043;50.998;4.754;2023-02-28T07:01:57;19.30;;;9.48;;
33714;SDS011;20043;50.998;4.754;2023-02-28T07:04:23;18.08;;;10.75;;
33714;SDS011;20043;50.998;4.754;2023-02-28T07:06:49;21.75;;;11.10;;
33714;SDS011;20043;50.998;4.754;2023-02-28T07:09:14;19.25;;;12.52;;
33714;SDS011;20043;50.998;4.754;2023-02-28T07:11:40;24.17;;;11.15;;
33714;SDS011;20043;50.998;4.754;2023-02-28T07:14:07;22.88;;;11.45;;
33714;SDS011;20043;50.998;4.754;2023-02-28T07:16:33;23.30;;;10.50;;
33714;SDS011;20043;50.998;4.754;2023-02-28T07:19:00;15.70;;;9.43;;
33714;SDS011;20043;50.998;4.754;2023-02-28T07:21:25;14.40;;;9.10;;
33714;SDS011;20043;50.998;4.754;2023-02-28T07:23:51;13.68;;;8.57;;
33714;SDS011;20043;50.998;4.754;2023-02-28T07:26:17;21.30;;;9.32;;
33714;SDS011;20043;50.998;4.754;2023-02-28T07:28:44;19.48;;;8.82;;
33714;SDS011;20043;50.998;4.754;2023-02-28T07:31:11;13.20;;;8.98;;
33714;SDS011;20043;50.998;4.754;2023-02-28T07:33:39;15.30;;;8.70;;
33714;SDS011;20043;50.998;4.754;2023-02-28T07:36:06;20.33;;;9.13;;
33714;SDS011;20043;50.998;4.754;2023-02-28T07:38:34;18.48;;;7.93;;
33714;SDS011;20043;50.998;4.754;2023-02-28T07:41:01;13.63;;;8.48;;
33714;SDS011;20043;50.998;4.754;2023-02-28T07:43:29;14.30;;;7.72;;
33714;SDS011;20043;50.998;4.754;2023-02-28T07:45:55;13.70;;;7.93;;
33714;SDS011;20043;50.998;4.754;2023-02-28T07:48:25;13.00;;;6.80;;
33714;SDS011;20043;50.998;4.754;2023-02-28T07:50:55;20.08;;;8.32;;
33714;SDS011;20043;50.998;4.754;2023-02-28T07:53:21;19.48;;;8.57;;
33714;SDS011;20043;50.998;4.754;2023-02-28T07:55:47;17.60;;;7.63;;
33714;SDS011;20043;50.998;4.754;2023-02-28T07:58:13;15.20;;;7.05;;
33714;SDS011;20043;50.998;4.754;2023-02-28T08:00:38;12.80;;;6.97;;
33714;SDS011;20043;50.998;4.754;2023-02-28T08:03:04;12.90;;;6.20;;
33714;SDS011;20043;50.998;4.754;2023-02-28T08:05:29;15.60;;;7.07;;
33714;SDS011;20043;50.998;4.754;2023-02-28T08:07:55;12.25;;;6.78;;
33714;SDS011;20043;50.998;4.754;2023-02-28T08:10:21;12.98;;;6.72;;
33714;SDS011;20043;50.998;4.754;2023-02-28T08:12:47;11.80;;;6.38;;
33714;SDS011;20043;50.998;4.754;2023-02-28T08:15:12;19.58;;;5.95;;
33714;SDS011;20043;50.998;4.754;2023-02-28T08:17:38;8.90;;;5.63;;
33714;SDS011;20043;50.998;4.754;2023-02-28T08:20:04;9.93;;;5.60;;
33714;SDS011;20043;50.998;4.754;2023-02-28T08:22:30;9.85;;;4.95;;
33714;SDS011;20043;50.998;4.754;2023-02-28T08:24:55;8.95;;;5.40;;
33714;SDS011;20043;50.998;4.754;2023-02-28T08:27:21;9.70;;;5.60;;
33714;SDS011;20043;50.998;4.754;2023-02-28T08:29:46;8.13;;;4.50;;
33714;SDS011;20043;50.998;4.754;2023-02-28T08:32:12;11.35;;;4.93;;
33714;SDS011;20043;50.998;4.754;2023-02-28T08:34:38;8.68;;;4.95;;
33714;SDS011;20043;50.998;4.754;2023-02-28T08:37:05;12.48;;;4.68;;
33714;SDS011;20043;50.998;4.754;2023-02-28T08:39:33;7.22;;;4.10;;
33714;SDS011;20043;50.998;4.754;2023-02-28T08:42:00;7.68;;;4.03;;
33714;SDS011;20043;50.998;4.754;2023-02-28T08:44:25;6.50;;;4.20;;
33714;SDS011;20043;50.998;4.754;2023-02-28T08:46:52;8.80;;;4.72;;
33714;SDS011;20043;50.998;4.754;2023-02-28T08:49:17;8.02;;;4.32;;
33714;SDS011;20043;50.998;4.754;2023-02-28T08:51:43;7.88;;;4.03;;
33714;SDS011;20043;50.998;4.754;2023-02-28T08:54:09;9.45;;;4.13;;
33714;SDS011;20043;50.998;4.754;2023-02-28T08:56:37;9.10;;;3.95;;
33714;SDS011;20043;50.998;4.754;2023-02-28T08:59:03;10.85;;;4.07;;
33714;SDS011;20043;50.998;4.754;2023-02-28T09:01:29;7.40;;;4.28;;
33714;SDS011;20043;50.998;4.754;2023-02-28T09:03:56;7.25;;;3.90;;
33714;SDS011;20043;50.998;4.754;2023-02-28T09:06:23;7.60;;;4.20;;
33714;SDS011;20043;50.998;4.754;2023-02-28T09:08:50;10.27;;;3.85;;
33714;SDS011;20043;50.998;4.754;2023-02-28T09:11:16;6.80;;;3.35;;
33714;SDS011;20043;50.998;4.754;2023-02-28T09:13:44;7.53;;;4.20;;
33714;SDS011;20043;50.998;4.754;2023-02-28T09:16:12;7.25;;;4.18;;
33714;SDS011;20043;50.998;4.754;2023-02-28T09:18:39;5.43;;;3.55;;
33714;SDS011;20043;50.998;4.754;2023-02-28T09:21:06;9.82;;;4.32;;
33714;SDS011;20043;50.998;4.754;2023-02-28T09:23:33;6.88;;;3.35;;
33714;SDS011;20043;50.998;4.754;2023-02-28T09:25:59;9.55;;;3.70;;
33714;SDS011;20043;50.998;4.754;2023-02-28T09:28:24;11.30;;;3.88;;
33714;SDS011;20043;50.998;4.754;2023-02-28T09:30:51;5.18;;;3.40;;
33714;SDS011;20043;50.998;4.754;2023-02-28T09:33:18;5.65;;;3.20;;
33714;SDS011;20043;50.998;4.754;2023-02-28T09:35:46;8.25;;;3.17;;
33714;SDS011;20043;50.998;4.754;2023-02-28T09:38:15;5.07;;;2.75;;
33714;SDS011;20043;50.998;4.754;2023-02-28T09:40:52;5.35;;;2.72;;
33714;SDS011;20043;50.998;4.754;2023-02-28T09:43:22;5.63;;;2.70;;
33714;SDS011;20043;50.998;4.754;2023-02-28T09:45:55;5.55;;;3.03;;
33714;SDS011;20043;50.998;4.754;2023-02-28T09:48:35;6.47;;;2.47;;
33714;SDS011;20043;50.998;4.754;2023-02-28T09:54:13;4.13;;;2.47;;
33714;SDS011;20043;50.998;4.754;2023-02-28T09:56:43;4.03;;;2.45;;
33714;SDS011;20043;50.998;4.754;2023-02-28T10:05:11;8.32;;;3.10;;
33714;SDS011;20043;50.998;4.754;2023-02-28T10:12:45;9.93;;;2.60;;
33714;SDS011;20043;50.998;4.754;2023-02-28T10:15:13;5.85;;;2.20;;
33714;SDS011;20043;50.998;4.754;2023-02-28T10:17:41;5.30;;;2.58;;
33714;SDS011;20043;50.998;4.754;2023-02-28T10:20:11;4.65;;;2.53;;
33714;SDS011;20043;50.998;4.754;2023-02-28T10:25:28;2.90;;;1.80;;
33714;SDS011;20043;50.998;4.754;2023-02-28T10:27:58;4.50;;;2.20;;
33714;SDS011;20043;50.998;4.754;2023-02-28T10:30:30;3.25;;;1.90;;
33714;SDS011;20043;50.998;4.754;2023-02-28T10:32:56;5.85;;;2.08;;
33714;SDS011;20043;50.998;4.754;2023-02-28T10:35:24;3.47;;;1.90;;
33714;SDS011;20043;50.998;4.754;2023-02-28T10:37:53;5.85;;;1.88;;
33714;SDS011;20043;50.998;4.754;2023-02-28T10:42:57;4.22;;;2.00;;
33714;SDS011;20043;50.998;4.754;2023-02-28T10:45:24;3.78;;;1.85;;
33714;SDS011;20043;50.998;4.754;2023-02-28T10:50:52;4.20;;;2.10;;
33714;SDS011;20043;50.998;4.754;2023-02-28T11:03:48;3.53;;;1.80;;
33714;SDS011;20043;50.998;4.754;2023-02-28T11:06:24;2.20;;;1.40;;
33714;SDS011;20043;50.998;4.754;2023-02-28T11:08:59;2.80;;;1.80;;
33714;SDS011;20043;50.998;4.754;2023-02-28T11:11:43;6.72;;;2.30;;
33714;SDS011;20043;50.998;4.754;2023-02-28T11:14:17;7.78;;;2.17;;
33714;SDS011;20043;50.998;4.754;2023-02-28T11:16:53;3.15;;;1.90;;
33714;SDS011;20043;50.998;4.754;2023-02-28T11:19:28;2.22;;;1.75;;
33714;SDS011;20043;50.998;4.754;2023-02-28T11:22:05;3.90;;;2.08;;
33714;SDS011;20043;50.998;4.754;2023-02-28T11:24:33;4.03;;;2.20;;
33714;SDS011;20043;50.998;4.754;2023-02-28T11:27:13;4.22;;;2.00;;
33714;SDS011;20043;50.998;4.754;2023-02-28T11:29:55;2.50;;;1.52;;
33714;SDS011;20043;50.998;4.754;2023-02-28T11:32:22;7.22;;;2.08;;
33714;SDS011;20043;50.998;4.754;2023-02-28T11:35:02;5.28;;;2.15;;
33714;SDS011;20043;50.998;4.754;2023-02-28T11:37:29;4.40;;;1.95;;
33714;SDS011;20043;50.998;4.754;2023-02-28T11:39:57;4.90;;;2.03;;
33714;SDS011;20043;50.998;4.754;2023-02-28T11:47:53;4.75;;;1.73;;
33714;SDS011;20043;50.998;4.754;2023-02-28T11:53:14;2.63;;;1.83;;
33714;SDS011;20043;50.998;4.754;2023-02-28T11:56:23;12.50;;;3.72;;
33714;SDS011;20043;50.998;4.754;2023-02-28T11:58:46;3.83;;;1.85;;
33714;SDS011;20043;50.998;4.754;2023-02-28T12:07:50;4.57;;;2.00;;
33714;SDS011;20043;50.998;4.754;2023-02-28T12:13:42;2.92;;;1.92;;
33714;SDS011;20043;50.998;4.754;2023-02-28T12:26:52;2.97;;;1.83;;
33714;SDS011;20043;50.998;4.754;2023-02-28T12:32:09;2.17;;;1.60;;
33714;SDS011;20043;50.998;4.754;2023-02-28T12:34:51;2.63;;;1.52;;
33714;SDS011;20043;50.998;4.754;2023-02-28T12:40:05;3.05;;;1.90;;
33714;SDS011;20043;50.998;4.754;2023-02-28T12:42:48;2.08;;;1.85;;
33714;SDS011;20043;50.998;4.754;2023-02-28T12:45:46;6.03;;;1.98;;
33714;SDS011;20043;50.998;4.754;2023-02-28T12:48:40;4.07;;;2.13;;
33714;SDS011;20043;50.998;4.754;2023-02-28T12:51:11;5.63;;;2.47;;
33714;SDS011;20043;50.998;4.754;2023-02-28T12:59:01;3.47;;;1.98;;
33714;SDS011;20043;50.998;4.754;2023-02-28T13:09:56;7.78;;;2.00;;
33714;SDS011;20043;50.998;4.754;2023-02-28T13:12:23;2.88;;;1.90;;
33714;SDS011;20043;50.998;4.754;2023-02-28T13:14:50;3.17;;;1.95;;
33714;SDS011;20043;50.998;4.754;2023-02-28T13:17:24;2.23;;;1.73;;
33714;SDS011;20043;50.998;4.754;2023-02-28T13:24:54;3.95;;;1.80;;
33714;SDS011;20043;50.998;4.754;2023-02-28T13:27:22;4.15;;;2.15;;
33714;SDS011;20043;50.998;4.754;2023-02-28T13:38:42;5.13;;;2.30;;
33714;SDS011;20043;50.998;4.754;2023-02-28T13:46:34;4.93;;;2.40;;
33714;SDS011;20043;50.998;4.754;2023-02-28T13:49:26;5.68;;;2.50;;
33714;SDS011;20043;50.998;4.754;2023-02-28T14:00:18;4.60;;;2.47;;
33714;SDS011;20043;50.998;4.754;2023-02-28T14:05:46;4.82;;;2.40;;
33714;SDS011;20043;50.998;4.754;2023-02-28T14:10:45;5.75;;;2.72;;
33714;SDS011;20043;50.998;4.754;2023-02-28T14:15:56;4.82;;;2.47;;
33714;SDS011;20043;50.998;4.754;2023-02-28T14:18:25;3.00;;;1.98;;
33714;SDS011;20043;50.998;4.754;2023-02-28T14:21:08;3.70;;;2.50;;
33714;SDS011;20043;50.998;4.754;2023-02-28T14:23:50;5.45;;;2.80;;
33714;SDS011;20043;50.998;4.754;2023-02-28T14:29:33;4.40;;;2.65;;
33714;SDS011;20043;50.998;4.754;2023-02-28T14:37:42;3.40;;;2.47;;
33714;SDS011;20043;50.998;4.754;2023-02-28T14:42:59;3.90;;;2.42;;
33714;SDS011;20043;50.998;4.754;2023-02-28T14:45:27;5.97;;;2.60;;
33714;SDS011;20043;50.998;4.754;2023-02-28T14:47:55;8.35;;;2.78;;
33714;SDS011;20043;50.998;4.754;2023-02-28T14:50:24;5.28;;;2.63;;
33714;SDS011;20043;50.998;4.754;2023-02-28T14:52:55;5.88;;;2.90;;
33714;SDS011;20043;50.998;4.754;2023-02-28T14:55:29;4.80;;;2.63;;
33714;SDS011;20043;50.998;4.754;2023-02-28T14:57:57;4.28;;;2.80;;
33714;SDS011;20043;50.998;4.754;2023-02-28T15:00:35;5.28;;;2.70;;
33714;SDS011;20043;50.998;4.754;2023-02-28T15:05:55;4.38;;;2.42;;
33714;SDS011;20043;50.998;4.754;2023-02-28T15:08:23;4.78;;;2.47;;
33714;SDS011;20043;50.998;4.754;2023-02-28T15:11:13;4.65;;;2.75;;
33714;SDS011;20043;50.998;4.754;2023-02-28T15:13:50;3.92;;;2.67;;
33714;SDS011;20043;50.998;4.754;2023-02-28T15:19:14;4.57;;;2.30;;
33714;SDS011;20043;50.998;4.754;2023-02-28T15:21:49;6.75;;;2.75;;
33714;SDS011;20043;50.998;4.754;2023-02-28T15:24:27;4.05;;;2.50;;
33714;SDS011;20043;50.998;4.754;2023-02-28T15:27:00;4.10;;;2.72;;
33714;SDS011;20043;50.998;4.754;2023-02-28T15:29:29;4.85;;;2.50;;
33714;SDS011;20043;50.998;4.754;2023-02-28T15:32:05;4.05;;;2.50;;
33714;SDS011;20043;50.998;4.754;2023-02-28T15:34:36;3.20;;;2.30;;
33714;SDS011;20043;50.998;4.754;2023-02-28T15:39:53;3.33;;;2.67;;
33714;SDS011;20043;50.998;4.754;2023-02-28T15:42:21;5.18;;;2.78;;
33714;SDS011;20043;50.998;4.754;2023-02-28T15:44:52;5.90;;;2.28;;
33714;SDS011;20043;50.998;4.754;2023-02-28T15:47:19;5.38;;;2.50;;
33714;SDS011;20043;50.998;4.754;2023-02-28T15:49:53;7.50;;;2.58;;
33714;SDS011;20043;50.998;4.754;2023-02-28T15:55:27;4.43;;;2.90;;
33714;SDS011;20043;50.998;4.754;2023-02-28T15:57:55;7.63;;;2.60;;
33714;SDS011;20043;50.998;4.754;2023-02-28T16:00:26;4.80;;;2.72;;
33714;SDS011;20043;50.998;4.754;2023-02-28T16:02:52;4.90;;;2.60;;
33714;SDS011;20043;50.998;4.754;2023-02-28T16:05:25;5.07;;;2.78;;
33714;SDS011;20043;50.998;4.754;2023-02-28T16:07:59;5.88;;;2.70;;
33714;SDS011;20043;50.998;4.754;2023-02-28T16:10:40;5.15;;;2.90;;
33714;SDS011;20043;50.998;4.754;2023-02-28T16:13:06;4.18;;;2.67;;
33714;SDS011;20043;50.998;4.754;2023-02-28T16:15:37;6.57;;;3.17;;
33714;SDS011;20043;50.998;4.754;2023-02-28T16:18:07;7.57;;;2.60;;
33714;SDS011;20043;50.998;4.754;2023-02-28T16:20:35;6.38;;;2.97;;
33714;SDS011;20043;50.998;4.754;2023-02-28T16:23:01;7.28;;;2.67;;
33714;SDS011;20043;50.998;4.754;2023-02-28T16:25:41;4.88;;;2.50;;
33714;SDS011;20043;50.998;4.754;2023-02-28T16:28:28;9.00;;;3.20;;
33714;SDS011;20043;50.998;4.754;2023-02-28T16:30:57;4.80;;;3.40;;
33714;SDS011;20043;50.998;4.754;2023-02-28T16:33:24;4.80;;;3.10;;
33714;SDS011;20043;50.998;4.754;2023-02-28T16:35:50;4.85;;;2.78;;
33714;SDS011;20043;50.998;4.754;2023-02-28T16:38:15;6.38;;;2.90;;
33714;SDS011;20043;50.998;4.754;2023-02-28T16:40:41;7.05;;;2.88;;
33714;SDS011;20043;50.998;4.754;2023-02-28T16:43:16;8.30;;;3.28;;
33714;SDS011;20043;50.998;4.754;2023-02-28T16:45:46;3.85;;;2.53;;
33714;SDS011;20043;50.998;4.754;2023-02-28T16:48:13;6.80;;;3.08;;
33714;SDS011;20043;50.998;4.754;2023-02-28T16:50:40;8.07;;;2.72;;
33714;SDS011;20043;50.998;4.754;2023-02-28T16:53:08;9.32;;;2.70;;
33714;SDS011;20043;50.998;4.754;2023-02-28T16:55:34;4.93;;;2.88;;
33714;SDS011;20043;50.998;4.754;2023-02-28T16:58:00;8.88;;;3.35;;
33714;SDS011;20043;50.998;4.754;2023-02-28T17:00:29;9.65;;;3.47;;
33714;SDS011;20043;50.998;4.754;2023-02-28T17:02:56;7.90;;;4.00;;
33714;SDS011;20043;50.998;4.754;2023-02-28T17:05:22;7.13;;;4.07;;
33714;SDS011;20043;50.998;4.754;2023-02-28T17:07:48;8.45;;;3.50;;
33714;SDS011;20043;50.998;4.754;2023-02-28T17:12:44;9.32;;;5.53;;
33714;SDS011;20043;50.998;4.754;2023-02-28T17:15:11;12.70;;;6.32;;
33714;SDS011;20043;50.998;4.754;2023-02-28T17:17:38;10.40;;;3.97;;
33714;SDS011;20043;50.998;4.754;2023-02-28T17:20:04;20.92;;;11.85;;
33714;SDS011;20043;50.998;4.754;2023-02-28T17:22:31;14.60;;;6.32;;
33714;SDS011;20043;50.998;4.754;2023-02-28T17:24:56;23.73;;;11.82;;
33714;SDS011;20043;50.998;4.754;2023-02-28T17:27:23;7.60;;;4.03;;
33714;SDS011;20043;50.998;4.754;2023-02-28T17:29:49;7.70;;;3.58;;
33714;SDS011;20043;50.998;4.754;2023-02-28T17:32:16;8.20;;;3.38;;
33714;SDS011;20043;50.998;4.754;2023-02-28T17:34:41;6.20;;;3.10;;
33714;SDS011;20043;50.998;4.754;2023-02-28T17:37:09;6.32;;;3.10;;
33714;SDS011;20043;50.998;4.754;2023-02-28T17:39:34;5.10;;;3.10;;
33714;SDS011;20043;50.998;4.754;2023-02-28T17:42:01;6.75;;;3.67;;
33714;SDS011;20043;50.998;4.754;2023-02-28T17:44:26;5.70;;;3.25;;
33714;SDS011;20043;50.998;4.754;2023-02-28T17:46:53;10.68;;;4.00;;
33714;SDS011;20043;50.998;4.754;2023-02-28T17:49:20;6.72;;;3.33;;